sensor_id;sensor_type;location;lat;lon;timestamp;temperature;humidity
7378;DHT22;3730;50.856;12.776;2023-05-17T00:58:13;7.50;54.50
7378;DHT22;3730;50.856;12.776;2023-05-17T01:00:39;7.60;58.40
7378;DHT22;3730;50.856;12.776;2023-05-17T01:03:05;7.60;59.30
7378;DHT22;3730;50.856;12.776;2023-05-17T01:05:31;7.40;59.80
7378;DHT22;3730;50.856;12.776;2023-05-17T01:07:57;7.40;60.70
7378;DHT22;3730;50.856;12.776;2023-05-17T01:10:49;7.60;61.40
7378;DHT22;3730;50.856;12.776;2023-05-17T01:13:39;7.30;62.10
7378;DHT22;3730;50.856;12.776;2023-05-17T01:16:22;7.50;62.90
7378;DHT22;3730;50.856;12.776;2023-05-17T01:18:57;7.50;65.00
7378;DHT22;3730;50.856;12.776;2023-05-17T01:27:16;7.40;67.70
7378;DHT22;3730;50.856;12.776;2023-05-17T01:29:43;7.40;65.20
7378;DHT22;3730;50.856;12.776;2023-05-17T01:32:11;7.30;69.30
7378;DHT22;3730;50.856;12.776;2023-05-17T01:34:37;7.40;69.40
7378;DHT22;3730;50.856;12.776;2023-05-17T01:37:03;7.30;73.00
7378;DHT22;3730;50.856;12.776;2023-05-17T01:39:29;7.20;74.60
7378;DHT22;3730;50.856;12.776;2023-05-17T01:42:28;7.10;75.70
7378;DHT22;3730;50.856;12.776;2023-05-17T07:06:56;8.30;99.90
7378;DHT22;3730;50.856;12.776;2023-05-17T07:09:21;8.40;99.90
7378;DHT22;3730;50.856;12.776;2023-05-17T07:11:47;8.10;99.90
7378;DHT22;3730;50.856;12.776;2023-05-17T07:14:13;8.10;99.90
7378;DHT22;3730;50.856;12.776;2023-05-17T08:22:26;9.90;88.20
7378;DHT22;3730;50.856;12.776;2023-05-17T08:24:52;9.90;86.50
7378;DHT22;3730;50.856;12.776;2023-05-17T08:29:43;9.90;86.50
7378;DHT22;3730;50.856;12.776;2023-05-17T08:32:09;9.80;83.40
7378;DHT22;3730;50.856;12.776;2023-05-17T08:37:01;10.00;80.30
7378;DHT22;3730;50.856;12.776;2023-05-17T08:39:27;9.70;81.40
7378;DHT22;3730;50.856;12.776;2023-05-17T08:41:52;10.10;79.00
7378;DHT22;3730;50.856;12.776;2023-05-17T08:44:18;10.40;77.20
7378;DHT22;3730;50.856;12.776;2023-05-17T08:46:45;10.40;72.30
7378;DHT22;3730;50.856;12.776;2023-05-17T08:49:20;10.30;66.30
7378;DHT22;3730;50.856;12.776;2023-05-17T08:51:48;10.40;67.00
7378;DHT22;3730;50.856;12.776;2023-05-17T08:54:15;10.20;66.90
7378;DHT22;3730;50.856;12.776;2023-05-17T08:56:41;10.20;66.80
7378;DHT22;3730;50.856;12.776;2023-05-17T08:59:08;10.30;62.70
7378;DHT22;3730;50.856;12.776;2023-05-17T09:01:35;10.00;64.70
7378;DHT22;3730;50.856;12.776;2023-05-17T09:04:03;10.00;63.30
7378;DHT22;3730;50.856;12.776;2023-05-17T09:08:55;10.10;65.80
7378;DHT22;3730;50.856;12.776;2023-05-17T09:11:27;10.30;64.90
7378;DHT22;3730;50.856;12.776;2023-05-17T09:13:53;10.50;64.60
7378;DHT22;3730;50.856;12.776;2023-05-17T09:16:18;10.60;60.30
7378;DHT22;3730;50.856;12.776;2023-05-17T09:18:53;10.60;62.30
7378;DHT22;3730;50.856;12.776;2023-05-17T09:21:20;10.30;57.20
7378;DHT22;3730;50.856;12.776;2023-05-17T09:23:46;10.20;58.30
7378;DHT22;3730;50.856;12.776;2023-05-17T09:26:12;10.10;59.00
7378;DHT22;3730;50.856;12.776;2023-05-17T09:28:39;9.80;58.70
7378;DHT22;3730;50.856;12.776;2023-05-17T09:31:07;9.90;58.90
7378;DHT22;3730;50.856;12.776;2023-05-17T09:33:34;10.00;54.70
7378;DHT22;3730;50.856;12.776;2023-05-17T09:36:00;10.10;53.40
7378;DHT22;3730;50.856;12.776;2023-05-17T09:38:26;10.20;52.90
7378;DHT22;3730;50.856;12.776;2023-05-17T09:43:23;10.50;44.00
7378;DHT22;3730;50.856;12.776;2023-05-17T09:45:56;10.70;42.40
7378;DHT22;3730;50.856;12.776;2023-05-17T09:48:25;10.70;40.00
7378;DHT22;3730;50.856;12.776;2023-05-17T09:50:51;10.70;40.10
7378;DHT22;3730;50.856;12.776;2023-05-17T09:53:30;10.90;39.60
7378;DHT22;3730;50.856;12.776;2023-05-17T09:56:01;11.00;37.50
7378;DHT22;3730;50.856;12.776;2023-05-17T09:58:27;10.90;35.10
7378;DHT22;3730;50.856;12.776;2023-05-17T10:00:59;11.20;35.30
7378;DHT22;3730;50.856;12.776;2023-05-17T10:03:29;11.10;32.30
7378;DHT22;3730;50.856;12.776;2023-05-17T10:05:56;11.20;29.80
7378;DHT22;3730;50.856;12.776;2023-05-17T10:08:22;10.70;29.10
7378;DHT22;3730;50.856;12.776;2023-05-17T10:10:53;11.10;28.60
7378;DHT22;3730;50.856;12.776;2023-05-17T10:13:21;11.20;25.00
7378;DHT22;3730;50.856;12.776;2023-05-17T10:15:50;11.30;24.00
7378;DHT22;3730;50.856;12.776;2023-05-17T10:18:16;11.20;21.90
7378;DHT22;3730;50.856;12.776;2023-05-17T10:20:42;11.30;21.40
7378;DHT22;3730;50.856;12.776;2023-05-17T10:23:10;11.30;17.90
7378;DHT22;3730;50.856;12.776;2023-05-17T10:25:37;11.30;18.50
7378;DHT22;3730;50.856;12.776;2023-05-17T10:28:03;11.20;19.80
7378;DHT22;3730;50.856;12.776;2023-05-17T10:30:32;11.50;20.30
7378;DHT22;3730;50.856;12.776;2023-05-17T10:33:00;11.30;20.10
7378;DHT22;3730;50.856;12.776;2023-05-17T10:37:53;11.70;21.00
7378;DHT22;3730;50.856;12.776;2023-05-17T10:40:19;11.90;20.90
7378;DHT22;3730;50.856;12.776;2023-05-17T10:42:54;11.60;20.10
7378;DHT22;3730;50.856;12.776;2023-05-17T10:45:23;12.10;21.60
7378;DHT22;3730;50.856;12.776;2023-05-17T10:47:50;12.10;20.90
7378;DHT22;3730;50.856;12.776;2023-05-17T10:50:21;12.20;20.90
7378;DHT22;3730;50.856;12.776;2023-05-17T10:52:48;12.30;20.40
7378;DHT22;3730;50.856;12.776;2023-05-17T10:55:22;11.10;19.90
7378;DHT22;3730;50.856;12.776;2023-05-17T10:58:17;12.00;19.10
7378;DHT22;3730;50.856;12.776;2023-05-17T11:03:17;12.00;21.30
7378;DHT22;3730;50.856;12.776;2023-05-17T11:06:10;12.20;17.80
7378;DHT22;3730;50.856;12.776;2023-05-17T11:08:31;11.80;17.00
7378;DHT22;3730;50.856;12.776;2023-05-17T11:11:16;12.40;15.50
7378;DHT22;3730;50.856;12.776;2023-05-17T11:13:51;12.30;15.40
7378;DHT22;3730;50.856;12.776;2023-05-17T11:16:27;12.40;13.80
7378;DHT22;3730;50.856;12.776;2023-05-17T11:19:06;12.30;13.70
7378;DHT22;3730;50.856;12.776;2023-05-17T11:21:32;12.20;13.80
7378;DHT22;3730;50.856;12.776;2023-05-17T11:24:01;12.30;15.20
7378;DHT22;3730;50.856;12.776;2023-05-17T11:29:10;12.20;19.70
7378;DHT22;3730;50.856;12.776;2023-05-17T11:31:44;12.10;18.90
7378;DHT22;3730;50.856;12.776;2023-05-17T12:28:43;13.50;2.50
7378;DHT22;3730;50.856;12.776;2023-05-17T12:31:15;14.00;2.60
7378;DHT22;3730;50.856;12.776;2023-05-17T13:04:29;14.20;1.60
7378;DHT22;3730;50.856;12.776;2023-05-17T13:07:03;14.50;1.00
7378;DHT22;3730;50.856;12.776;2023-05-17T13:09:30;14.30;1.00
7378;DHT22;3730;50.856;12.776;2023-05-17T13:11:57;14.10;1.00
7378;DHT22;3730;50.856;12.776;2023-05-17T13:14:46;14.20;1.00
7378;DHT22;3730;50.856;12.776;2023-05-17T13:17:26;14.20;1.00
7378;DHT22;3730;50.856;12.776;2023-05-17T13:19:59;14.20;1.00
7378;DHT22;3730;50.856;12.776;2023-05-17T13:22:25;14.20;1.00
7378;DHT22;3730;50.856;12.776;2023-05-17T13:24:50;14.30;1.00
7378;DHT22;3730;50.856;12.776;2023-05-17T13:27:16;14.40;1.00
7378;DHT22;3730;50.856;12.776;2023-05-17T13:29:42;14.50;1.00
7378;DHT22;3730;50.856;12.776;2023-05-17T13:32:10;14.60;1.00
7378;DHT22;3730;50.856;12.776;2023-05-17T13:34:37;14.60;1.00
7378;DHT22;3730;50.856;12.776;2023-05-17T13:37:03;14.70;1.00
7378;DHT22;3730;50.856;12.776;2023-05-17T13:39:29;14.60;1.00
7378;DHT22;3730;50.856;12.776;2023-05-17T13:41:55;14.60;1.00
7378;DHT22;3730;50.856;12.776;2023-05-17T13:44:21;14.70;1.00
7378;DHT22;3730;50.856;12.776;2023-05-17T13:46:47;14.70;1.00
7378;DHT22;3730;50.856;12.776;2023-05-17T13:49:12;14.70;1.00
7378;DHT22;3730;50.856;12.776;2023-05-17T13:51:39;14.60;1.00
7378;DHT22;3730;50.856;12.776;2023-05-17T13:54:05;14.80;1.00
7378;DHT22;3730;50.856;12.776;2023-05-17T13:56:32;14.80;1.00
7378;DHT22;3730;50.856;12.776;2023-05-17T13:58:57;14.70;1.00
7378;DHT22;3730;50.856;12.776;2023-05-17T14:01:23;14.60;1.00
7378;DHT22;3730;50.856;12.776;2023-05-17T14:03:49;14.80;1.00
7378;DHT22;3730;50.856;12.776;2023-05-17T14:06:15;14.80;1.00
7378;DHT22;3730;50.856;12.776;2023-05-17T14:08:40;14.90;1.00
7378;DHT22;3730;50.856;12.776;2023-05-17T14:11:06;14.80;1.00
7378;DHT22;3730;50.856;12.776;2023-05-17T14:13:32;14.70;1.00
7378;DHT22;3730;50.856;12.776;2023-05-17T14:15:57;14.70;1.00
7378;DHT22;3730;50.856;12.776;2023-05-17T14:18:23;14.80;1.00
7378;DHT22;3730;50.856;12.776;2023-05-17T14:20:49;14.90;1.00
7378;DHT22;3730;50.856;12.776;2023-05-17T14:23:14;15.00;1.00
7378;DHT22;3730;50.856;12.776;2023-05-17T14:25:40;15.30;1.00
7378;DHT22;3730;50.856;12.776;2023-05-17T14:28:08;15.50;1.00
7378;DHT22;3730;50.856;12.776;2023-05-17T14:30:33;15.30;1.00
7378;DHT22;3730;50.856;12.776;2023-05-17T14:32:59;15.60;1.00
7378;DHT22;3730;50.856;12.776;2023-05-17T14:35:25;15.70;1.00
7378;DHT22;3730;50.856;12.776;2023-05-17T14:37:50;15.60;1.00
7378;DHT22;3730;50.856;12.776;2023-05-17T14:40:16;15.60;1.00
7378;DHT22;3730;50.856;12.776;2023-05-17T14:42:42;15.70;1.00
7378;DHT22;3730;50.856;12.776;2023-05-17T14:45:08;15.80;1.00
7378;DHT22;3730;50.856;12.776;2023-05-17T14:47:34;15.90;1.00
7378;DHT22;3730;50.856;12.776;2023-05-17T14:49:59;16.00;1.00
7378;DHT22;3730;50.856;12.776;2023-05-17T14:52:25;16.20;1.00
7378;DHT22;3730;50.856;12.776;2023-05-17T14:54:51;16.30;1.00
7378;DHT22;3730;50.856;12.776;2023-05-17T14:57:16;13.90;1.00
7378;DHT22;3730;50.856;12.776;2023-05-17T14:59:43;16.70;1.00
7378;DHT22;3730;50.856;12.776;2023-05-17T15:02:09;16.40;1.00
7378;DHT22;3730;50.856;12.776;2023-05-17T15:07:01;16.60;1.00
7378;DHT22;3730;50.856;12.776;2023-05-17T15:09:27;16.80;1.00
7378;DHT22;3730;50.856;12.776;2023-05-17T15:11:56;16.70;1.00
7378;DHT22;3730;50.856;12.776;2023-05-17T15:14:21;16.60;1.00
7378;DHT22;3730;50.856;12.776;2023-05-17T15:16:51;16.80;1.00
7378;DHT22;3730;50.856;12.776;2023-05-17T15:19:17;16.90;1.00
7378;DHT22;3730;50.856;12.776;2023-05-17T15:21:43;17.10;1.00
7378;DHT22;3730;50.856;12.776;2023-05-17T15:24:09;17.20;1.00
7378;DHT22;3730;50.856;12.776;2023-05-17T15:26:36;17.30;1.00
7378;DHT22;3730;50.856;12.776;2023-05-17T15:29:01;16.90;1.00
7378;DHT22;3730;50.856;12.776;2023-05-17T15:31:27;16.90;1.00
7378;DHT22;3730;50.856;12.776;2023-05-17T15:33:54;17.10;1.00
7378;DHT22;3730;50.856;12.776;2023-05-17T15:36:19;17.30;1.00
7378;DHT22;3730;50.856;12.776;2023-05-17T15:38:45;17.60;1.00
7378;DHT22;3730;50.856;12.776;2023-05-17T15:50:58;17.80;1.00
7378;DHT22;3730;50.856;12.776;2023-05-17T15:53:25;17.40;1.00
7378;DHT22;3730;50.856;12.776;2023-05-17T15:55:50;17.20;1.00
7378;DHT22;3730;50.856;12.776;2023-05-17T15:58:17;17.10;1.00
7378;DHT22;3730;50.856;12.776;2023-05-17T16:00:44;17.10;1.00
7378;DHT22;3730;50.856;12.776;2023-05-17T16:03:10;16.90;1.00
7378;DHT22;3730;50.856;12.776;2023-05-17T16:05:36;16.80;1.00
7378;DHT22;3730;50.856;12.776;2023-05-17T16:08:01;16.60;1.00
7378;DHT22;3730;50.856;12.776;2023-05-17T16:10:27;16.60;1.00
7378;DHT22;3730;50.856;12.776;2023-05-17T16:12:53;16.40;1.00
7378;DHT22;3730;50.856;12.776;2023-05-17T16:15:19;16.30;1.00
7378;DHT22;3730;50.856;12.776;2023-05-17T16:17:44;16.30;1.00
7378;DHT22;3730;50.856;12.776;2023-05-17T16:20:10;16.20;1.00
7378;DHT22;3730;50.856;12.776;2023-05-17T16:22:41;16.10;1.00
7378;DHT22;3730;50.856;12.776;2023-05-17T16:25:07;16.00;1.00
7378;DHT22;3730;50.856;12.776;2023-05-17T16:34:51;16.00;1.00
7378;DHT22;3730;50.856;12.776;2023-05-17T16:37:16;15.60;1.00
7378;DHT22;3730;50.856;12.776;2023-05-17T16:39:42;15.70;1.00
7378;DHT22;3730;50.856;12.776;2023-05-17T16:42:08;15.60;1.00
7378;DHT22;3730;50.856;12.776;2023-05-17T16:44:33;15.60;1.00
7378;DHT22;3730;50.856;12.776;2023-05-17T16:46:59;15.60;1.00
7378;DHT22;3730;50.856;12.776;2023-05-17T19:17:58;15.40;1.00
7378;DHT22;3730;50.856;12.776;2023-05-17T19:25:15;12.30;1.00
7378;DHT22;3730;50.856;12.776;2023-05-17T19:27:41;12.10;1.00
7378;DHT22;3730;50.856;12.776;2023-05-17T19:30:08;12.10;1.00
7378;DHT22;3730;50.856;12.776;2023-05-17T19:39:52;11.90;1.00
7378;DHT22;3730;50.856;12.776;2023-05-17T19:42:17;11.70;1.00
7378;DHT22;3730;50.856;12.776;2023-05-17T19:44:43;11.80;1.00
7378;DHT22;3730;50.856;12.776;2023-05-17T19:47:09;11.80;1.00
7378;DHT22;3730;50.856;12.776;2023-05-17T19:49:35;11.70;1.00
7378;DHT22;3730;50.856;12.776;2023-05-17T19:52:00;11.70;1.00
7378;DHT22;3730;50.856;12.776;2023-05-17T19:54:29;11.70;1.00
7378;DHT22;3730;50.856;12.776;2023-05-17T19:56:56;11.70;1.00
7378;DHT22;3730;50.856;12.776;2023-05-17T19:59:22;11.70;1.00
7378;DHT22;3730;50.856;12.776;2023-05-17T20:01:48;11.80;1.00
7378;DHT22;3730;50.856;12.776;2023-05-17T20:04:13;11.80;1.00
7378;DHT22;3730;50.856;12.776;2023-05-17T20:06:39;11.80;1.00
7378;DHT22;3730;50.856;12.776;2023-05-17T20:09:05;11.30;1.00
7378;DHT22;3730;50.856;12.776;2023-05-17T20:11:31;11.70;1.00
7378;DHT22;3730;50.856;12.776;2023-05-17T20:13:56;12.00;1.00
7378;DHT22;3730;50.856;12.776;2023-05-17T20:16:22;11.60;1.00
7378;DHT22;3730;50.856;12.776;2023-05-17T20:18:52;11.50;1.00
7378;DHT22;3730;50.856;12.776;2023-05-17T20:21:17;11.70;1.00
7378;DHT22;3730;50.856;12.776;2023-05-17T20:23:44;11.50;1.00
7378;DHT22;3730;50.856;12.776;2023-05-17T20:38:26;11.30;1.00
7378;DHT22;3730;50.856;12.776;2023-05-17T20:40:51;11.30;1.00
7378;DHT22;3730;50.856;12.776;2023-05-17T20:45:44;11.30;1.00
7378;DHT22;3730;50.856;12.776;2023-05-17T20:48:11;11.20;1.00
7378;DHT22;3730;50.856;12.776;2023-05-17T20:50:36;11.20;1.00
7378;DHT22;3730;50.856;12.776;2023-05-17T20:53:03;11.10;1.00
7378;DHT22;3730;50.856;12.776;2023-05-17T20:55:29;11.00;1.00
7378;DHT22;3730;50.856;12.776;2023-05-17T20:57:54;11.20;1.00
7378;DHT22;3730;50.856;12.776;2023-05-17T21:00:21;11.10;1.00
7378;DHT22;3730;50.856;12.776;2023-05-17T21:02:47;11.00;1.00
7378;DHT22;3730;50.856;12.776;2023-05-17T21:05:13;11.00;1.00
7378;DHT22;3730;50.856;12.776;2023-05-17T21:07:39;10.90;1.00
7378;DHT22;3730;50.856;12.776;2023-05-17T21:10:08;10.90;1.00
7378;DHT22;3730;50.856;12.776;2023-05-17T21:12:34;10.80;1.00
7378;DHT22;3730;50.856;12.776;2023-05-17T21:15:01;10.80;1.00
7378;DHT22;3730;50.856;12.776;2023-05-17T21:17:26;10.50;1.00
7378;DHT22;3730;50.856;12.776;2023-05-17T21:19:52;10.60;1.00
7378;DHT22;3730;50.856;12.776;2023-05-17T21:22:18;10.60;1.00
7378;DHT22;3730;50.856;12.776;2023-05-17T21:24:43;10.90;1.00
7378;DHT22;3730;50.856;12.776;2023-05-17T21:27:09;10.60;1.00
7378;DHT22;3730;50.856;12.776;2023-05-17T21:29:34;10.60;1.00
7378;DHT22;3730;50.856;12.776;2023-05-17T21:32:00;10.30;1.10
7378;DHT22;3730;50.856;12.776;2023-05-17T21:34:26;10.60;1.00
7378;DHT22;3730;50.856;12.776;2023-05-17T21:36:51;10.30;1.00
7378;DHT22;3730;50.856;12.776;2023-05-17T21:39:19;10.30;1.70
7378;DHT22;3730;50.856;12.776;2023-05-17T21:41:44;10.30;2.60
7378;DHT22;3730;50.856;12.776;2023-05-17T21:44:10;10.30;5.20
7378;DHT22;3730;50.856;12.776;2023-05-17T21:46:35;10.20;5.10
7378;DHT22;3730;50.856;12.776;2023-05-17T21:49:01;10.20;3.80
7378;DHT22;3730;50.856;12.776;2023-05-17T21:51:27;10.20;6.10
7378;DHT22;3730;50.856;12.776;2023-05-17T21:53:52;10.20;4.80
7378;DHT22;3730;50.856;12.776;2023-05-17T21:56:18;10.20;4.90
7378;DHT22;3730;50.856;12.776;2023-05-17T21:58:43;10.20;5.20
7378;DHT22;3730;50.856;12.776;2023-05-17T22:01:09;10.20;7.20
7378;DHT22;3730;50.856;12.776;2023-05-17T22:03:35;10.00;7.20
7378;DHT22;3730;50.856;12.776;2023-05-17T22:06:01;10.50;8.10
7378;DHT22;3730;50.856;12.776;2023-05-17T22:08:26;10.10;7.90
7378;DHT22;3730;50.856;12.776;2023-05-17T22:10:52;10.20;8.70
7378;DHT22;3730;50.856;12.776;2023-05-17T22:13:21;10.10;9.00
7378;DHT22;3730;50.856;12.776;2023-05-17T22:15:51;10.10;9.60
7378;DHT22;3730;50.856;12.776;2023-05-17T22:20:47;10.10;8.30
7378;DHT22;3730;50.856;12.776;2023-05-17T22:23:20;9.80;12.60
7378;DHT22;3730;50.856;12.776;2023-05-17T22:25:45;10.00;12.60
7378;DHT22;3730;50.856;12.776;2023-05-17T22:28:11;9.90;14.40
7378;DHT22;3730;50.856;12.776;2023-05-17T22:30:37;9.80;15.90
7378;DHT22;3730;50.856;12.776;2023-05-17T22:33:02;9.80;16.20
7378;DHT22;3730;50.856;12.776;2023-05-17T22:35:28;9.80;17.30
7378;DHT22;3730;50.856;12.776;2023-05-17T22:37:53;9.70;18.60
7378;DHT22;3730;50.856;12.776;2023-05-17T22:40:19;9.70;18.60
7378;DHT22;3730;50.856;12.776;2023-05-17T22:42:45;9.90;19.10
7378;DHT22;3730;50.856;12.776;2023-05-17T22:45:11;9.70;20.00
7378;DHT22;3730;50.856;12.776;2023-05-17T22:47:37;9.90;21.40
7378;DHT22;3730;50.856;12.776;2023-05-17T23:09:34;9.20;26.50
7378;DHT22;3730;50.856;12.776;2023-05-17T23:12:02;9.80;27.00
7378;DHT22;3730;50.856;12.776;2023-05-17T23:14:34;9.50;27.30
7378;DHT22;3730;50.856;12.776;2023-05-17T23:17:01;9.50;27.60
7378;DHT22;3730;50.856;12.776;2023-05-17T23:19:28;9.30;28.00
7378;DHT22;3730;50.856;12.776;2023-05-17T23:21:55;9.30;28.20
7378;DHT22;3730;50.856;12.776;2023-05-17T23:24:21;9.30;28.10
7378;DHT22;3730;50.856;12.776;2023-05-17T23:26:50;9.50;28.20
7378;DHT22;3730;50.856;12.776;2023-05-17T23:29:16;9.40;26.70
7378;DHT22;3730;50.856;12.776;2023-05-17T23:31:42;9.50;28.90
7378;DHT22;3730;50.856;12.776;2023-05-17T23:34:15;9.50;29.00
7378;DHT22;3730;50.856;12.776;2023-05-17T23:36:40;9.30;28.70
7378;DHT22;3730;50.856;12.776;2023-05-17T23:39:06;9.10;28.20
7378;DHT22;3730;50.856;12.776;2023-05-17T23:41:32;9.00;26.50
7378;DHT22;3730;50.856;12.776;2023-05-17T23:44:02;9.60;29.00
7378;DHT22;3730;50.856;12.776;2023-05-17T23:46:28;9.60;29.10
7378;DHT22;3730;50.856;12.776;2023-05-17T23:51:22;9.40;30.20
7378;DHT22;3730;50.856;12.776;2023-05-17T23:53:47;9.50;30.60
7378;DHT22;3730;50.856;12.776;2023-05-17T23:56:17;9.40;29.10
7378;DHT22;3730;50.856;12.776;2023-05-17T23:58:44;9.30;30.00
